Time;durP1;ratioP1;P1;durP2;ratioP2;P2;SDS_P1;SDS_P2;PMS_P1;PMS_P2;Temp;Humidity;BMP_temperature;BMP_pressure;BME280_temperature;BME280_humidity;BME280_pressure;Samples;Min_cycle;Max_cycle;Signal;HPM_P1;HPM_P2
2022/06/12 00:01:37;;;;;;;;;;;;;;;16.66;75.55;101006.22;6225326;22;1296;-93
2022/06/12 00:04:02;;;;;;;;;;;;;;;16.88;74.31;101024.81;6250126;22;1904;-93
2022/06/12 00:06:27;;;;;;;;;;;;;;;17.06;73.73;101029.38;6250541;22;1156;-93
2022/06/12 00:08:54;;;;;;;;;;;;;;;17.22;74.24;101027.91;6251293;22;1292;-93
2022/06/12 00:11:20;;;;;;;;;;;;;;;16.97;72.89;101026.53;6251142;22;1170;-93
2022/06/12 00:13:47;;;;;;;;;;;;;;;16.78;74.92;101031.38;6252474;22;1169;-93
2022/06/12 00:16:13;;;;;;;;;;;;;;;16.64;75.46;101033.34;6257883;22;1278;-94
2022/06/12 00:18:38;;;;;;;;;;;;;;;16.70;75.74;101034.03;6257273;22;1294;-93
2022/06/12 00:21:11;;;;;;;;;;;;;;;16.72;74.96;101034.56;6259415;22;1236;-91
2022/06/12 00:23:42;;;;;;;;;;;;;;;17.04;73.75;101034.41;6286877;22;1928;-93
2022/06/12 00:26:07;;;;;;;;;;;;;;;17.02;73.63;101031.94;6258694;22;1325;-93
2022/06/12 00:28:33;;;;;;;;;;;;;;;16.84;74.08;101024.59;6255113;22;1262;-93
2022/06/12 00:31:00;;;;;;;;;;;;;;;16.65;75.40;101040.50;6255871;22;1143;-93
2022/06/12 00:33:25;;;;;;;;;;;;;;;16.33;76.59;101035.03;6255664;22;1228;-93
2022/06/12 00:35:50;;;;;;;;;;;;;;;16.46;75.86;101031.47;6255720;22;1196;-93
2022/06/12 00:38:16;;;;;;;;;;;;;;;16.72;75.86;101031.78;6254910;22;1184;-93
2022/06/12 00:40:41;;;;;;;;;;;;;;;16.67;75.61;101037.44;6254645;22;1278;-93
2022/06/12 00:43:06;;;;;;;;;;;;;;;16.66;75.40;101036.63;6255952;22;1880;-92
2022/06/12 00:45:38;;;;;;;;;;;;;;;16.75;75.21;101045.81;6257206;22;1279;-94
2022/06/12 00:48:06;;;;;;;;;;;;;;;16.47;76.00;101038.63;6258192;22;1493;-93
2022/06/12 00:50:32;;;;;;;;;;;;;;;16.72;75.37;101034.56;6258296;22;1248;-94
2022/06/12 00:52:57;;;;;;;;;;;;;;;16.82;75.21;101034.34;6257118;22;1186;-93
2022/06/12 00:55:24;;;;;;;;;;;;;;;16.86;75.44;101032.59;6250111;22;1133;-93
2022/06/12 00:57:50;;;;;;;;;;;;;;;16.63;76.18;101034.47;6250667;22;1255;-93
2022/06/12 01:00:15;;;;;;;;;;;;;;;16.67;76.48;101031.91;6250284;22;1203;-93
2022/06/12 01:02:41;;;;;;;;;;;;;;;16.56;76.01;101028.50;6251063;22;1940;-93
2022/06/12 01:07:55;;;;;;;;;;;;;;;16.86;75.59;101029.81;6287180;22;627;-94
2022/06/12 01:10:23;;;;;;;;;;;;;;;17.00;74.54;101034.22;6287435;22;1269;-93
2022/06/12 01:12:52;;;;;;;;;;;;;;;16.83;75.76;101027.69;6280085;22;913;-93
2022/06/12 01:15:20;;;;;;;;;;;;;;;16.57;75.89;101021.84;6252463;22;1165;-93
2022/06/12 01:17:45;;;;;;;;;;;;;;;16.56;76.53;101028.50;6252595;22;1337;-93
2022/06/12 01:20:12;;;;;;;;;;;;;;;16.76;75.69;101025.31;6251438;22;1179;-93
2022/06/12 01:22:38;;;;;;;;;;;;;;;16.81;74.93;101030.75;6279158;22;1933;-93
2022/06/12 01:25:09;;;;;;;;;;;;;;;16.92;73.63;101026.66;6251997;22;1077;-92
2022/06/12 01:27:53;;;;;;;;;;;;;;;17.02;74.10;101023.63;6252386;22;1448;-93
2022/06/12 01:30:33;;;;;;;;;;;;;;;16.90;74.44;101028.09;6262749;22;1270;-94
2022/06/12 01:33:12;;;;;;;;;;;;;;;16.36;77.37;101023.38;6256690;22;1306;-92
2022/06/12 01:35:55;;;;;;;;;;;;;;;16.31;77.09;101026.25;6252382;22;1257;-92
2022/06/12 01:38:26;;;;;;;;;;;;;;;16.33;77.15;101029.53;6251990;22;1233;-92
2022/06/12 01:41:01;;;;;;;;;;;;;;;16.30;77.43;101043.94;6252442;22;1311;-92
2022/06/12 01:43:36;;;;;;;;;;;;;;;16.42;77.14;101030.41;6252671;22;1885;-92
2022/06/12 01:46:06;;;;;;;;;;;;;;;16.32;77.02;101033.41;6252119;22;1175;-92
2022/06/12 01:48:40;;;;;;;;;;;;;;;15.99;77.97;101027.13;6252687;22;1326;-93
2022/06/12 01:51:16;;;;;;;;;;;;;;;16.01;78.56;101022.09;6252740;22;1293;-93
2022/06/12 01:53:51;;;;;;;;;;;;;;;16.02;78.78;101020.97;6253342;22;1195;-93
2022/06/12 01:56:19;;;;;;;;;;;;;;;15.86;78.98;101018.50;6255502;22;1120;-93
2022/06/12 01:58:56;;;;;;;;;;;;;;;15.84;79.33;101022.66;6251956;22;1266;-93
2022/06/12 02:01:40;;;;;;;;;;;;;;;16.06;78.56;101020.06;6251264;22;898;-93
2022/06/12 02:04:13;;;;;;;;;;;;;;;16.47;76.75;101016.53;6251587;22;1926;-93
2022/06/12 02:06:45;;;;;;;;;;;;;;;16.53;75.31;101018.03;6252105;22;1243;-94
2022/06/12 02:09:27;;;;;;;;;;;;;;;16.26;75.91;101019.66;6252030;22;1312;-93
2022/06/12 02:14:43;;;;;;;;;;;;;;;16.05;76.94;101018.44;6278129;22;647;-92
2022/06/12 02:17:11;;;;;;;;;;;;;;;15.95;77.40;101029.66;6251498;22;1116;-93
2022/06/12 02:19:40;;;;;;;;;;;;;;;16.13;76.49;101020.50;6251459;22;1262;-94
2022/06/12 02:22:16;;;;;;;;;;;;;;;15.80;77.38;101016.94;6251842;22;1203;-92
2022/06/12 02:24:43;;;;;;;;;;;;;;;15.88;76.17;101012.69;6278839;22;1880;-93
2022/06/12 02:27:14;;;;;;;;;;;;;;;15.73;76.65;101011.00;6252144;22;1408;-93
2022/06/12 02:29:42;;;;;;;;;;;;;;;15.68;75.75;101015.78;6252107;22;1349;-93
2022/06/12 02:32:16;;;;;;;;;;;;;;;15.21;78.01;101019.56;6252123;22;1255;-93
2022/06/12 02:34:43;;;;;;;;;;;;;;;14.91;78.51;101020.78;6251651;22;1136;-93
2022/06/12 02:37:13;;;;;;;;;;;;;;;14.97;79.47;101016.88;6252315;22;1047;-93
2022/06/12 02:39:41;;;;;;;;;;;;;;;15.12;78.39;101014.72;6251645;22;1214;-93
2022/06/12 02:42:09;;;;;;;;;;;;;;;15.38;76.93;101019.84;6251765;22;1182;-93
2022/06/12 02:44:46;;;;;;;;;;;;;;;15.38;76.66;101014.31;6251730;22;1924;-94
2022/06/12 02:47:18;;;;;;;;;;;;;;;15.07;76.76;101013.94;6252029;22;1394;-93
2022/06/12 02:49:46;;;;;;;;;;;;;;;14.91;77.72;101012.53;6260610;22;1280;-93
2022/06/12 02:52:23;;;;;;;;;;;;;;;15.09;76.53;101017.22;6255571;22;1171;-93
2022/06/12 02:54:56;;;;;;;;;;;;;;;14.99;75.55;101018.19;6251064;22;1187;-93
2022/06/12 02:57:34;;;;;;;;;;;;;;;14.56;78.24;101016.56;6251186;22;1289;-94
2022/06/12 02:59:59;;;;;;;;;;;;;;;14.45;78.98;101015.06;6250613;22;1284;-93
2022/06/12 03:02:33;;;;;;;;;;;;;;;14.25;78.36;101011.41;6250805;22;858;-93
2022/06/12 03:05:09;;;;;;;;;;;;;;;14.75;77.37;101020.19;6251250;22;1186;-93
2022/06/12 03:07:35;;;;;;;;;;;;;;;14.96;75.32;101018.81;6251082;22;1191;-93
2022/06/12 03:10:03;;;;;;;;;;;;;;;14.73;76.54;101014.97;6250836;22;1281;-94
2022/06/12 03:12:28;;;;;;;;;;;;;;;14.57;78.11;101020.97;6278224;22;928;-94
2022/06/12 03:14:54;;;;;;;;;;;;;;;13.98;79.55;101027.63;6251146;22;1303;-94
2022/06/12 03:17:20;;;;;;;;;;;;;;;13.82;81.51;101024.22;6252128;22;1389;-92
2022/06/12 03:19:47;;;;;;;;;;;;;;;13.97;81.29;101024.06;6251977;22;1331;-93
2022/06/12 03:22:31;;;;;;;;;;;;;;;14.30;78.36;101030.59;6253247;22;1205;-94
2022/06/12 03:25:09;;;;;;;;;;;;;;;14.21;78.15;101024.09;6282392;22;834;-93
2022/06/12 03:27:48;;;;;;;;;;;;;;;13.87;78.53;101037.91;6252246;22;1311;-92
